createdAt,value
2018-06-22T00:00:30.147Z,51.60
2018-06-22T00:03:54.767Z,50.50
2018-06-22T00:07:19.414Z,50.30
2018-06-22T00:10:44.039Z,49.70
2018-06-22T00:14:09.373Z,50.10
2018-06-22T00:17:34.011Z,49.80
2018-06-22T00:20:58.709Z,50.40
2018-06-22T00:24:23.351Z,50.40
2018-06-22T00:27:48.040Z,50.60
2018-06-22T00:34:36.958Z,49.10
2018-06-22T00:38:01.574Z,49.20
2018-06-22T00:41:26.207Z,48.60
2018-06-22T00:44:50.962Z,48.00
2018-06-22T00:48:15.619Z,48.80
2018-06-22T00:51:40.276Z,48.80
2018-06-22T00:58:29.263Z,48.20
2018-06-22T01:01:53.869Z,47.90
2018-06-22T01:05:18.552Z,49.20
2018-06-22T01:08:43.343Z,48.20
2018-06-22T01:12:08.076Z,48.30
2018-06-22T01:15:32.733Z,48.90
2018-06-22T01:18:57.379Z,49.10
2018-06-22T01:22:22.168Z,49.20
2018-06-22T01:25:47.058Z,50.00
2018-06-22T01:29:16.933Z,49.20
2018-06-22T01:32:41.597Z,49.20
2018-06-22T01:36:06.231Z,49.10
2018-06-22T01:39:30.867Z,49.20
2018-06-22T01:42:55.517Z,49.50
2018-06-22T01:46:20.114Z,50.20
2018-06-22T01:49:44.784Z,49.80
2018-06-22T01:53:09.437Z,49.80
2018-06-22T01:59:58.363Z,50.70
2018-06-22T02:03:22.989Z,50.70
2018-06-22T02:06:47.665Z,51.00
2018-06-22T02:10:12.384Z,51.00
2018-06-22T02:13:37.095Z,50.60
2018-06-22T02:17:01.722Z,51.00
2018-06-22T02:20:26.340Z,50.90
2018-06-22T02:23:51.071Z,51.10
2018-06-22T02:27:15.718Z,50.70
2018-06-22T02:30:40.321Z,50.30
2018-06-22T02:34:04.997Z,50.60
2018-06-22T02:37:29.657Z,50.20
2018-06-22T02:40:54.421Z,50.30
2018-06-22T02:44:19.205Z,50.80
2018-06-22T02:47:43.950Z,51.00
2018-06-22T02:51:08.763Z,51.20
2018-06-22T02:54:33.406Z,51.70
2018-06-22T02:57:58.033Z,51.80
2018-06-22T03:01:22.645Z,51.60
2018-06-22T03:04:47.313Z,51.40
2018-06-22T03:08:12.052Z,51.50
2018-06-22T03:11:36.753Z,51.50
2018-06-22T03:15:01.473Z,52.10
2018-06-22T03:21:50.409Z,52.00
2018-06-22T03:25:15.092Z,53.00
2018-06-22T03:32:04.115Z,52.70
2018-06-22T03:35:28.752Z,51.60
2018-06-22T03:38:53.407Z,51.50
2018-06-22T03:45:42.367Z,52.90
2018-06-22T03:49:07.016Z,52.60
2018-06-22T03:52:31.719Z,53.00
2018-06-22T03:55:56.346Z,52.50
2018-06-22T03:59:20.983Z,52.80
2018-06-22T04:02:45.650Z,52.90
2018-06-22T04:06:10.331Z,52.30
2018-06-22T04:09:35.105Z,53.00
2018-06-22T04:12:59.839Z,52.60
2018-06-22T04:16:24.545Z,52.70
2018-06-22T04:19:49.273Z,53.40
2018-06-22T04:26:38.329Z,53.30
2018-06-22T04:30:02.973Z,53.30
2018-06-22T04:33:27.727Z,52.90
2018-06-22T04:36:52.435Z,53.10
2018-06-22T04:40:17.177Z,53.80
2018-06-22T04:43:41.835Z,53.80
2018-06-22T04:47:06.535Z,54.10
2018-06-22T04:50:31.290Z,53.80
2018-06-22T04:53:56.074Z,54.00
2018-06-22T04:57:20.947Z,54.30
2018-06-22T05:00:45.683Z,54.30
2018-06-22T05:04:10.411Z,54.50
2018-06-22T05:07:35.235Z,54.10
2018-06-22T05:10:59.898Z,53.60
2018-06-22T05:14:24.605Z,54.00
2018-06-22T05:17:49.348Z,55.00
2018-06-22T05:21:14.027Z,54.70
2018-06-22T05:24:38.726Z,54.90
2018-06-22T05:28:03.425Z,54.20
2018-06-22T05:31:28.109Z,54.40
2018-06-22T05:34:52.812Z,54.90
2018-06-22T05:38:17.685Z,55.30
2018-06-22T05:41:42.335Z,55.90
2018-06-22T05:45:07.026Z,55.20
2018-06-22T05:48:31.617Z,55.20
2018-06-22T05:51:56.313Z,55.10
2018-06-22T05:55:20.946Z,55.60
2018-06-22T05:58:45.594Z,55.60
2018-06-22T06:02:10.223Z,55.60
2018-06-22T06:05:34.857Z,54.80
2018-06-22T06:08:59.517Z,55.70
2018-06-22T06:12:24.229Z,55.30
2018-06-22T06:15:48.861Z,55.40
2018-06-22T06:19:13.477Z,55.60
2018-06-22T06:22:38.371Z,55.70
2018-06-22T06:26:03.039Z,55.50
2018-06-22T06:29:27.709Z,55.40
2018-06-22T06:32:52.369Z,54.90
2018-06-22T06:36:17.061Z,55.10
2018-06-22T06:39:41.675Z,55.40
2018-06-22T06:43:06.363Z,55.30
2018-06-22T06:46:31.008Z,55.60
2018-06-22T06:49:55.644Z,56.10
2018-06-22T06:53:20.301Z,56.00
2018-06-22T06:56:44.958Z,55.40
2018-06-22T07:00:10.094Z,55.10
2018-06-22T07:03:34.762Z,55.30
2018-06-22T07:06:59.459Z,55.50
2018-06-22T07:10:24.062Z,54.90
2018-06-22T07:13:48.713Z,54.90
2018-06-22T07:17:13.416Z,54.50
2018-06-22T07:20:38.448Z,54.50
2018-06-22T07:24:03.214Z,53.90
2018-06-22T07:27:27.996Z,54.40
2018-06-22T07:30:52.664Z,53.60
2018-06-22T07:34:17.384Z,54.10
2018-06-22T07:37:42.223Z,53.20
2018-06-22T07:41:07.157Z,52.00
2018-06-22T07:44:31.846Z,51.40
2018-06-22T07:47:56.473Z,50.10
2018-06-22T07:51:21.091Z,50.90
2018-06-22T07:54:45.714Z,50.20
2018-06-22T07:58:10.347Z,50.00
2018-06-22T08:01:34.997Z,49.60
2018-06-22T08:04:59.644Z,49.10
2018-06-22T08:08:24.305Z,49.40
2018-06-22T08:11:48.907Z,48.50
2018-06-22T08:15:13.550Z,50.30
2018-06-22T08:18:38.283Z,49.10
2018-06-22T08:22:02.941Z,49.10
2018-06-22T08:25:27.549Z,49.10
2018-06-22T08:28:52.154Z,49.20
2018-06-22T08:32:16.786Z,49.40
2018-06-22T08:35:41.442Z,49.00
2018-06-22T08:39:09.385Z,49.40
2018-06-22T08:42:35.029Z,48.40
2018-06-22T08:49:24.343Z,48.80
2018-06-22T08:52:49.003Z,48.90
2018-06-22T08:59:37.880Z,48.00
2018-06-22T09:03:02.565Z,48.20
2018-06-22T09:06:27.263Z,48.00
2018-06-22T09:09:51.875Z,48.10
2018-06-22T09:13:16.603Z,47.10
2018-06-22T09:16:41.257Z,46.60
2018-06-22T09:20:06.004Z,46.50
2018-06-22T09:23:30.710Z,46.80
2018-06-22T09:26:55.323Z,46.50
2018-06-22T09:30:19.965Z,47.30
2018-06-22T09:33:44.687Z,47.40
2018-06-22T09:37:09.358Z,46.80
2018-06-22T09:40:34.090Z,46.60
2018-06-22T09:43:58.794Z,47.40
2018-06-22T09:47:23.525Z,45.60
2018-06-22T09:50:48.140Z,46.20
2018-06-22T09:54:12.855Z,45.90
2018-06-22T09:57:37.655Z,46.80
2018-06-22T10:01:02.317Z,45.40
2018-06-22T10:04:26.941Z,45.20
2018-06-22T10:07:51.617Z,44.00
2018-06-22T10:11:16.241Z,43.80
2018-06-22T10:14:40.910Z,43.80
2018-06-22T10:18:05.634Z,44.10
2018-06-22T10:21:30.303Z,42.60
2018-06-22T10:24:54.938Z,42.20
2018-06-22T10:28:19.624Z,42.00
2018-06-22T10:31:44.225Z,41.20
2018-06-22T10:35:08.944Z,40.80
2018-06-22T10:38:33.599Z,39.70
2018-06-22T10:41:58.228Z,40.40
2018-06-22T10:45:22.961Z,41.70
2018-06-22T10:52:13.243Z,39.10
2018-06-22T10:55:37.900Z,38.50
2018-06-22T10:59:02.861Z,39.00
2018-06-22T11:02:27.561Z,38.50
2018-06-22T11:05:52.389Z,37.70
2018-06-22T11:09:16.967Z,37.10
2018-06-22T11:12:43.622Z,37.90
2018-06-22T11:16:08.352Z,36.30
2018-06-22T11:19:33.154Z,34.40
2018-06-22T11:22:58.053Z,33.10
2018-06-22T11:26:23.589Z,33.40
2018-06-22T11:29:49.129Z,31.10
2018-06-22T11:33:13.931Z,31.20
2018-06-22T11:36:38.652Z,33.60
2018-06-22T11:40:03.493Z,33.30
2018-06-22T11:43:28.268Z,31.60
2018-06-22T11:46:53.076Z,31.90
2018-06-22T11:50:17.980Z,32.00
2018-06-22T11:53:43.374Z,31.40
2018-06-22T11:57:09.349Z,30.90
2018-06-22T12:00:34.270Z,31.80
2018-06-22T12:07:24.203Z,32.20
2018-06-22T12:10:49.070Z,32.20
2018-06-22T12:14:13.946Z,31.90
2018-06-22T12:17:38.786Z,32.50
2018-06-22T12:21:03.548Z,32.50
2018-06-22T12:24:28.232Z,33.70
2018-06-22T12:27:52.930Z,32.40
2018-06-22T12:31:17.605Z,32.30
2018-06-22T12:34:42.218Z,33.20
2018-06-22T12:38:06.864Z,32.90
2018-06-22T12:44:55.998Z,32.90
2018-06-22T12:48:20.753Z,33.60
2018-06-22T12:51:45.377Z,33.60
2018-06-22T12:55:10.033Z,32.50
2018-06-22T12:58:34.688Z,32.30
2018-06-22T13:01:59.325Z,33.00
2018-06-22T13:05:24.002Z,31.90
2018-06-22T13:08:48.709Z,31.70
2018-06-22T13:12:13.330Z,30.90
2018-06-22T13:15:38.044Z,31.40
2018-06-22T13:19:02.715Z,32.10
2018-06-22T13:22:27.325Z,32.60
2018-06-22T13:25:52.036Z,31.50
2018-06-22T13:29:16.759Z,32.20
2018-06-22T13:32:41.344Z,33.20
2018-06-22T13:36:06.245Z,33.10
2018-06-22T13:39:30.902Z,33.40
2018-06-22T13:42:55.689Z,33.90
2018-06-22T13:46:20.424Z,34.30
2018-06-22T13:49:45.049Z,34.40
2018-06-22T13:53:10.152Z,35.00
2018-06-22T13:56:35.541Z,33.90
2018-06-22T14:00:00.240Z,33.80
2018-06-22T14:03:24.845Z,32.90
2018-06-22T14:10:20.196Z,33.40
2018-06-22T14:13:44.848Z,34.30
2018-06-22T14:17:09.466Z,34.90
2018-06-22T14:20:34.465Z,34.80
2018-06-22T14:23:59.186Z,35.70
2018-06-22T14:27:24.117Z,35.10
2018-06-22T14:30:48.901Z,34.90
2018-06-22T14:34:13.559Z,34.80
2018-06-22T14:37:38.263Z,34.60
2018-06-22T14:41:05.231Z,33.80
2018-06-22T14:44:29.841Z,33.40
2018-06-22T14:47:54.625Z,33.40
2018-06-22T14:51:19.272Z,33.50
2018-06-22T14:54:49.144Z,34.00
2018-06-22T14:58:19.149Z,34.20
2018-06-22T15:01:49.263Z,35.50
2018-06-22T15:05:19.236Z,35.40
2018-06-22T15:12:08.475Z,36.50
2018-06-22T15:15:33.698Z,36.70
2018-06-22T15:18:59.156Z,37.80
2018-06-22T15:22:23.860Z,37.60
2018-06-22T15:25:49.470Z,36.80
2018-06-22T15:29:14.186Z,36.70
2018-06-22T15:32:39.704Z,36.20
2018-06-22T15:36:09.709Z,36.30
2018-06-22T15:39:39.848Z,35.00
2018-06-22T15:43:09.877Z,34.30
2018-06-22T15:46:39.916Z,33.20
2018-06-22T15:51:09.190Z,34.50
2018-06-22T15:54:39.364Z,35.80
2018-06-22T15:58:04.394Z,36.00
2018-06-22T16:01:29.109Z,36.50
2018-06-22T16:04:53.858Z,37.90
2018-06-22T16:08:18.584Z,37.60
2018-06-22T16:11:43.293Z,37.80
2018-06-22T16:15:16.774Z,37.90
2018-06-22T16:18:46.770Z,38.00
2018-06-22T16:22:16.896Z,39.00
2018-06-22T16:26:48.539Z,38.90
2018-06-22T16:30:13.307Z,38.60
2018-06-22T16:33:42.336Z,39.90
2018-06-22T16:40:33.399Z,39.30
2018-06-22T16:43:58.037Z,39.00
2018-06-22T16:47:22.819Z,38.50
2018-06-22T16:50:47.492Z,39.20
2018-06-22T16:54:12.230Z,38.90
2018-06-22T16:57:37.036Z,38.90
2018-06-22T17:01:01.694Z,39.30
2018-06-22T17:04:26.352Z,38.30
2018-06-22T17:07:56.222Z,38.50
2018-06-22T17:11:26.240Z,38.10
2018-06-22T17:14:56.065Z,38.20
2018-06-22T17:18:25.879Z,37.70
2018-06-22T17:21:51.075Z,37.80
2018-06-22T17:25:15.768Z,37.40
2018-06-22T17:28:40.419Z,37.60
2018-06-22T17:32:05.142Z,37.70
2018-06-22T17:35:29.736Z,37.30
2018-06-22T17:38:54.377Z,37.00
2018-06-22T17:42:19.087Z,37.60
2018-06-22T17:45:43.891Z,38.80
2018-06-22T17:52:33.040Z,39.60
2018-06-22T17:55:57.804Z,39.20
2018-06-22T17:59:28.016Z,39.30
2018-06-22T18:02:58.247Z,39.60
2018-06-22T18:06:28.439Z,39.40
2018-06-22T18:09:58.289Z,39.90
2018-06-22T18:13:23.064Z,39.50
2018-06-22T18:16:48.796Z,39.50
2018-06-22T18:20:13.507Z,39.60
2018-06-22T18:23:38.246Z,39.30
2018-06-22T18:27:03.205Z,39.40
2018-06-22T18:30:27.920Z,39.90
2018-06-22T18:37:17.671Z,38.80
2018-06-22T18:40:42.321Z,39.50
2018-06-22T18:44:08.056Z,39.40
2018-06-22T18:47:32.765Z,39.60
2018-06-22T18:50:59.042Z,40.60
2018-06-22T18:54:29.068Z,41.60
2018-06-22T18:57:59.729Z,42.20
2018-06-22T19:01:29.550Z,42.90
2018-06-22T19:04:54.253Z,41.70
2018-06-22T19:08:18.996Z,41.50
2018-06-22T19:11:43.726Z,42.70
2018-06-22T19:15:08.459Z,42.60
2018-06-22T19:18:34.326Z,42.80
2018-06-22T19:21:59.570Z,43.50
2018-06-22T19:28:49.377Z,44.60
2018-06-22T19:32:14.134Z,44.80
2018-06-22T19:35:39.006Z,44.50
2018-06-22T19:39:03.866Z,44.30
2018-06-22T19:42:28.605Z,44.00
2018-06-22T19:45:58.478Z,44.10
2018-06-22T19:52:58.134Z,44.90
2018-06-22T19:56:22.777Z,44.70
2018-06-22T19:59:47.424Z,45.30
2018-06-22T20:06:36.495Z,46.80
2018-06-22T20:10:01.256Z,47.50
2018-06-22T20:13:25.957Z,47.90
2018-06-22T20:16:50.796Z,48.20
2018-06-22T20:20:15.590Z,48.40
2018-06-22T20:23:40.403Z,48.30
2018-06-22T20:27:05.236Z,48.40
2018-06-22T20:30:29.974Z,48.90
2018-06-22T20:33:54.712Z,49.10
2018-06-22T20:37:24.826Z,49.20
2018-06-22T20:40:54.729Z,49.70
2018-06-22T20:44:24.743Z,49.10
2018-06-22T20:47:54.719Z,49.20
2018-06-22T20:51:19.350Z,49.20
2018-06-22T20:54:44.790Z,49.20
2018-06-22T20:58:09.470Z,49.60
2018-06-22T21:01:34.175Z,49.30
2018-06-22T21:04:58.788Z,49.90
2018-06-22T21:11:47.859Z,49.30
2018-06-22T21:15:12.541Z,49.80
2018-06-22T21:22:06.822Z,49.70
2018-06-22T21:25:31.480Z,50.10
2018-06-22T21:29:01.194Z,50.40
2018-06-22T21:32:31.234Z,50.40
2018-06-22T21:36:01.212Z,51.10
2018-06-22T21:39:26.899Z,51.10
2018-06-22T21:42:51.683Z,51.40
2018-06-22T21:46:16.305Z,51.30
2018-06-22T21:49:41.325Z,51.90
2018-06-22T21:53:06.090Z,51.90
2018-06-22T21:56:30.732Z,52.10
2018-06-22T21:59:55.379Z,51.90
2018-06-22T22:06:44.349Z,52.10
2018-06-22T22:10:09.071Z,52.40
2018-06-22T22:13:33.781Z,52.50
2018-06-22T22:16:58.456Z,52.30
2018-06-22T22:20:23.149Z,53.00
2018-06-22T22:23:47.872Z,52.90
2018-06-22T22:27:12.589Z,53.10
2018-06-22T22:30:37.560Z,53.60
2018-06-22T22:34:02.219Z,53.50
2018-06-22T22:40:51.225Z,53.70
2018-06-22T22:44:15.895Z,53.90
2018-06-22T22:47:40.541Z,54.20
2018-06-22T22:51:05.384Z,54.70
2018-06-22T22:54:29.978Z,54.50
2018-06-22T22:57:55.615Z,55.60
2018-06-22T23:01:20.332Z,55.40
2018-06-22T23:04:45.013Z,55.90
2018-06-22T23:08:09.694Z,55.40
2018-06-22T23:11:34.431Z,55.50
2018-06-22T23:14:59.094Z,56.00
2018-06-22T23:18:23.731Z,55.80
2018-06-22T23:21:48.475Z,56.00
2018-06-22T23:25:13.184Z,55.80
2018-06-22T23:28:37.862Z,56.00
2018-06-22T23:32:02.510Z,56.20
2018-06-22T23:35:27.158Z,56.50
2018-06-22T23:38:52.658Z,56.50
2018-06-22T23:45:41.593Z,56.90
2018-06-22T23:49:06.374Z,56.90
2018-06-22T23:52:31.121Z,56.80
2018-06-22T23:55:55.781Z,57.00
2018-06-22T23:59:20.464Z,57.30
